createdAt,value
2022-11-16T09:39:47.644Z,101324.97
2022-11-16T09:45:16.672Z,101316.72
2022-11-16T09:50:33.861Z,101307.16
2022-11-16T09:55:57.427Z,101322.44
2022-11-16T10:01:17.588Z,101303.22
2022-11-16T10:06:33.370Z,101298.59
2022-11-16T10:12:05.112Z,101290.06
2022-11-16T10:17:14.439Z,101290.31
2022-11-16T10:22:46.107Z,101288.09
2022-11-16T10:28:16.200Z,101289.97
2022-11-16T10:33:21.167Z,101276.88
2022-11-16T10:38:29.141Z,101280.31
2022-11-16T10:43:33.405Z,101287.50
2022-11-16T10:48:47.208Z,101280.03
2022-11-16T10:53:50.231Z,101272.09
2022-11-16T10:58:58.778Z,101264.59
2022-11-16T11:04:22.746Z,101267.84
2022-11-16T11:09:37.696Z,101247.94
2022-11-16T11:15:01.840Z,101247.09
2022-11-16T11:20:16.853Z,101229.69
2022-11-16T11:25:20.864Z,101238.31
2022-11-16T11:30:23.594Z,101216.53
2022-11-16T11:35:31.434Z,101215.09
2022-11-16T11:40:33.916Z,101199.94
2022-11-16T11:46:04.481Z,101190.88
2022-11-16T11:51:12.441Z,101197.16
2022-11-16T11:56:15.697Z,101188.84
2022-11-16T12:01:23.743Z,101189.78
2022-11-16T12:06:42.657Z,101178.84
2022-11-16T12:12:00.639Z,101175.91
2022-11-16T12:17:50.147Z,101176.22
2022-11-16T12:23:15.885Z,101167.00
2022-11-16T12:28:47.128Z,101153.25
2022-11-16T12:34:18.499Z,101147.09
2022-11-16T12:39:30.310Z,101140.16
2022-11-16T12:44:42.409Z,101135.06
2022-11-16T12:50:07.774Z,101134.09
2022-11-16T12:55:39.572Z,101135.97
2022-11-16T13:00:54.754Z,101134.53
2022-11-16T13:06:05.079Z,101123.75
2022-11-16T13:11:22.690Z,101104.97
2022-11-16T13:16:26.074Z,101111.03
2022-11-16T13:22:00.310Z,101109.09
2022-11-16T13:27:17.647Z,101112.66
2022-11-16T13:32:45.605Z,101116.97
2022-11-16T13:37:50.252Z,101112.66
2022-11-16T13:43:18.012Z,101099.41
2022-11-16T13:48:25.968Z,101097.00
2022-11-16T13:54:43.517Z,101104.31
2022-11-16T13:58:59.408Z,101102.97
2022-11-16T14:04:42.071Z,101119.63
2022-11-16T14:09:51.936Z,101123.31
2022-11-16T14:15:14.744Z,101128.97
2022-11-16T14:20:44.283Z,101128.00
2022-11-16T14:25:47.286Z,101114.22
2022-11-16T14:31:03.798Z,101103.06
2022-11-16T14:36:08.777Z,101117.94
2022-11-16T14:41:21.905Z,101106.38
2022-11-16T14:46:33.636Z,101105.13
2022-11-16T14:51:42.878Z,101110.47
2022-11-16T14:57:18.659Z,101104.25
2022-11-16T15:02:25.655Z,101089.97
2022-11-16T15:07:30.223Z,101097.75
2022-11-16T15:12:41.800Z,101099.72
2022-11-16T15:18:05.890Z,101105.66
2022-11-16T15:23:14.898Z,101106.44
2022-11-16T15:28:25.300Z,101111.44
2022-11-16T15:33:30.322Z,101100.41
2022-11-16T15:38:34.087Z,101102.03
2022-11-16T15:44:01.428Z,101112.84
2022-11-16T15:49:04.744Z,101107.34
2022-11-16T15:54:53.354Z,101101.97
2022-11-16T15:59:57.825Z,101100.81
2022-11-16T16:05:00.299Z,101105.72
2022-11-16T16:10:19.368Z,101102.91
2022-11-16T16:15:40.533Z,101096.50
2022-11-16T16:20:48.187Z,101088.84
2022-11-16T16:25:50.946Z,101103.41
2022-11-16T16:30:53.559Z,101088.41
2022-11-16T16:35:56.236Z,101081.66
2022-11-16T16:41:03.762Z,101081.66
2022-11-16T16:46:06.643Z,101073.81
2022-11-16T16:51:11.930Z,101071.34
2022-11-16T16:56:19.974Z,101061.03
2022-11-16T17:01:22.487Z,101067.50
2022-11-16T17:06:25.373Z,101067.50
2022-11-16T17:11:29.126Z,101046.78
2022-11-16T17:16:38.016Z,101052.59
2022-11-16T17:21:40.710Z,101045.69
2022-11-16T17:26:43.399Z,101034.69
2022-11-16T17:31:48.093Z,101050.44
2022-11-16T17:36:50.610Z,101035.03
2022-11-16T17:41:53.120Z,101036.03
2022-11-16T17:46:55.723Z,101045.34
2022-11-16T17:51:58.307Z,101036.53
2022-11-16T17:57:00.787Z,101031.09
2022-11-16T18:02:03.298Z,101029.38
2022-11-16T18:07:05.739Z,101026.00
2022-11-16T18:12:08.332Z,101018.09
2022-11-16T18:17:10.814Z,101012.00
2022-11-16T18:22:13.297Z,101006.22
2022-11-16T18:27:15.815Z,101008.78
2022-11-16T18:32:18.263Z,101006.09
2022-11-16T18:37:20.804Z,100990.47
2022-11-16T18:42:23.257Z,100991.25
2022-11-16T18:47:25.689Z,100983.34
2022-11-16T18:52:28.168Z,100963.81
2022-11-16T18:57:31.160Z,100957.91
2022-11-16T19:02:33.643Z,100966.66
2022-11-16T19:07:36.161Z,100964.78
2022-11-16T19:12:38.748Z,100973.66
2022-11-16T19:18:06.310Z,100961.59
2022-11-16T19:23:04.395Z,100977.69
2022-11-16T19:28:08.079Z,100971.72
2022-11-16T19:33:10.536Z,100969.09
2022-11-16T19:38:13.004Z,100976.00
2022-11-16T19:43:15.480Z,100986.78
2022-11-16T19:48:17.938Z,100979.88
2022-11-16T19:53:20.346Z,100958.41
2022-11-16T19:58:22.887Z,100957.34
2022-11-16T20:03:25.292Z,100957.28
2022-11-16T20:08:27.831Z,100959.03
2022-11-16T20:13:30.340Z,100958.50
2022-11-16T20:18:36.047Z,100959.69
2022-11-16T20:23:38.510Z,100955.09
2022-11-16T20:28:43.517Z,100958.81
2022-11-16T20:33:54.263Z,100954.81
2022-11-16T20:38:57.987Z,100951.13
2022-11-16T20:44:02.821Z,100950.75
2022-11-16T20:49:05.347Z,100946.44
2022-11-16T20:54:07.865Z,100945.97
2022-11-16T20:59:10.321Z,100935.31
2022-11-16T21:04:12.858Z,100942.38
2022-11-16T21:09:17.876Z,100932.84
2022-11-16T21:14:21.265Z,100927.13
2022-11-16T21:19:23.710Z,100924.59
2022-11-16T21:24:27.812Z,100929.47
2022-11-16T21:29:30.790Z,100917.47
2022-11-16T21:34:38.755Z,100919.63
2022-11-16T21:39:42.533Z,100909.47
2022-11-16T21:44:45.169Z,100916.53
2022-11-16T21:50:09.826Z,100908.84
2022-11-16T21:55:10.149Z,100911.53
2022-11-16T22:00:13.168Z,100910.31
2022-11-16T22:05:34.032Z,100900.72
2022-11-16T22:10:36.608Z,100893.31
2022-11-16T22:15:39.060Z,100889.56
2022-11-16T22:20:41.542Z,100884.94
2022-11-16T22:25:44.005Z,100872.19
2022-11-16T22:30:51.435Z,100873.50
2022-11-16T22:35:54.598Z,100876.78
2022-11-16T22:40:57.735Z,100877.03
2022-11-16T22:46:02.054Z,100871.63
2022-11-16T22:51:07.619Z,100874.09
2022-11-16T22:56:11.063Z,100869.03
2022-11-16T23:01:13.688Z,100878.25
2022-11-16T23:06:17.088Z,100899.44
2022-11-16T23:11:43.169Z,100887.47
2022-11-16T23:16:46.107Z,100907.53
2022-11-16T23:22:16.374Z,100909.91
2022-11-16T23:27:32.070Z,100886.19
2022-11-16T23:32:34.815Z,100903.56
2022-11-16T23:37:57.178Z,100897.50
2022-11-16T23:43:18.269Z,100887.72
2022-11-16T23:48:20.724Z,100878.31
2022-11-16T23:53:23.248Z,100889.50
2022-11-16T23:58:25.818Z,100877.81
